Airfield :
LOGIN :

Register | Disclaimer

   EN    FR    IT 

 










Legend :    VFR   Marginal VFR   IFR   Intensive IFR   Very Intensive IFR
Visi :
Ceiling :
>= 8 km
>= 3000ft
5 to 8 km
1000 to 3000 ft
1500m to 5 km
500 to 1000 ft
800 to 1500m
200 to 500 ft
< 800m
< 200 ft
Symbols :   Thunderstorms  Fog  Heavy snow  Heavy precipitations  Wind > 20 kt
SIGMETs :     Misc.  Thunderstorms  Icing  Turbulence  Mountain Waves  Volcanic Ashes






- Airport Elevation : 36 ft
- IATA code : LTQ


LFAT - Le Touquet

CURRENT METAR :
  • 241130Z AUTO 19005KT 150V230 9999 OVC019/// ///TCU 06/03 Q0998 TEMPO 20015G25KT 2000 TSRAGS BKN009 BKN014CB

EXPIRED METARs :
  • 241100Z AUTO 20008KT 160V230 9999 -RADZ BKN018/// BKN037/// BKN048/// ///CB 06/04 Q0997 TEMPO 20015G25KT 2000 TSRAGS BKN009 BKN014CB
  • 241030Z AUTO 21009KT 170V230 9999 BKN016/// BKN027/// BKN042/// ///CB 07/04 Q0997 TEMPO 20015G25KT 2000 TSRAGS BKN009 BKN014CB
  • 241000Z AUTO 22010KT 9999 -RA FEW014/// BKN022/// OVC030/// ///CB 05/03 Q0997 TEMPO 20015G25KT 2000 TSRAGS BKN009 BKN014CB
  • 240930Z AUTO 21009KT 180V240 9999 OVC013/// //////CB 06/04 Q0997 TEMPO 20015G25KT 2000 TSRAGS BKN009 BKN014CB
  • 240900Z AUTO 20007KT 160V220 9999 BKN014/// BKN032/// BKN046/// ///TCU 05/03 Q0997 TEMPO 20015G25KT 2000 TSRAGS BKN009 BKN014CB
  • 240830Z AUTO 19007KT 150V220 9999 SCT014/// BKN020/// BKN037/// ///CB 05/03 Q0996 TEMPO 23015G25KT 2000 TSRAGS BKN008 BKN013CB
  • 240800Z AUTO 18007KT 9999 BKN013/// BKN018/// ///TCU 04/03 Q0996 TEMPO 23015G25KT 2000 TSRAGS BKN008 BKN013CB
  • 240730Z AUTO 17008KT 9999 BKN011/// BKN049/// OVC058/// ///TCU 04/02 Q0996 TEMPO 23015G25KT 2000 TSRAGS BKN008 BKN013CB
  • 240700Z AUTO 18006KT 9999 BKN012/// BKN027/// OVC032/// ///CB 04/03 Q0995 TEMPO 23015G25KT 2000 TSRAGS BKN008 BKN013CB

TAF TAF LFAT
Valid from the 24 at 09:00 until the 24 at 18:00 UTC


240800Z 2409/2418 18008KT 9999 BKN020
TEMPO 2409/2418 3500 SHRA BKN012 BKN018TCU
PROB30
TEMPO 2409/2418 20015G25KT 2000 TSRAGS BKN009 BKN014CB
ATIS : +33 3 21 06 62 84



MET'MAP, your aeronautical weather chart ! - Copyright ORBIFLY December 2007 - Disclaimer

ORBIFLY MET'MAP TEAM :

Programming & Development : Alexandra Zaïnal
Original concept : Baudouin d'Aumeries
Technical & hardware support : Manuel Goepfert
Assistance : Marc-Olivier Méhu




SOURCES & CREDITS :

   NOAA